createdAt,value
2022-11-14T00:01:13.072Z,10.63
2022-11-14T00:03:40.279Z,10.47
2022-11-14T00:06:08.207Z,9.83
2022-11-14T00:08:35.821Z,9.70
2022-11-14T00:11:03.115Z,10.03
2022-11-14T00:13:29.920Z,10.00
2022-11-14T00:15:56.817Z,10.10
2022-11-14T00:18:24.136Z,10.40
2022-11-14T00:20:52.973Z,9.73
2022-11-14T00:23:21.092Z,9.83
2022-11-14T00:25:48.477Z,9.47
2022-11-14T00:28:15.778Z,9.87
2022-11-14T00:30:47.005Z,10.37
2022-11-14T00:33:19.880Z,10.10
2022-11-14T00:35:54.989Z,9.83
2022-11-14T00:38:22.278Z,10.77
2022-11-14T00:40:49.185Z,9.63
2022-11-14T00:43:15.912Z,9.47
2022-11-14T00:45:46.496Z,9.27
2022-11-14T00:48:14.178Z,8.77
2022-11-14T00:50:42.484Z,10.23
2022-11-14T00:53:09.286Z,9.50
2022-11-14T00:55:36.049Z,9.03
2022-11-14T00:58:02.761Z,8.77
2022-11-14T01:00:29.606Z,9.50
2022-11-14T01:02:58.114Z,9.87
2022-11-14T01:05:26.482Z,9.97
2022-11-14T01:07:54.207Z,9.00
2022-11-14T01:10:21.241Z,8.73
2022-11-14T01:12:48.418Z,9.90
2022-11-14T01:15:15.154Z,8.67
2022-11-14T01:17:42.194Z,8.93
2022-11-14T01:20:09.126Z,9.40
2022-11-14T01:22:35.841Z,10.10
2022-11-14T01:25:02.570Z,9.57
2022-11-14T01:27:32.206Z,10.37
2022-11-14T01:29:59.153Z,9.53
2022-11-14T01:32:27.018Z,9.47
2022-11-14T01:34:53.856Z,9.67
2022-11-14T01:37:20.897Z,10.53
2022-11-14T01:39:47.597Z,11.63
2022-11-14T01:42:14.314Z,11.47
2022-11-14T01:44:52.893Z,10.13
2022-11-14T01:47:28.776Z,10.43
2022-11-14T01:50:00.797Z,9.77
2022-11-14T01:52:39.332Z,10.10
2022-11-14T01:55:09.771Z,10.83
2022-11-14T01:57:44.145Z,12.30
2022-11-14T02:00:12.726Z,11.47
2022-11-14T02:02:39.496Z,9.80
2022-11-14T02:05:11.432Z,10.27
2022-11-14T02:07:41.294Z,10.43
2022-11-14T02:10:20.149Z,10.00
2022-11-14T02:12:47.153Z,9.37
2022-11-14T02:15:15.057Z,10.53
2022-11-14T02:17:44.130Z,10.10
2022-11-14T02:20:11.446Z,8.97
2022-11-14T02:22:42.366Z,9.70
2022-11-14T02:25:13.188Z,9.57
2022-11-14T02:27:41.464Z,9.30
2022-11-14T02:30:23.140Z,9.57
2022-11-14T02:33:10.089Z,9.50
2022-11-14T02:35:36.549Z,9.83
2022-11-14T02:38:03.325Z,9.47
2022-11-14T02:40:30.136Z,10.40
2022-11-14T02:42:56.842Z,10.67
2022-11-14T02:45:23.743Z,10.27
2022-11-14T02:47:50.511Z,9.47
2022-11-14T02:50:18.198Z,10.23
2022-11-14T02:52:47.654Z,10.00
2022-11-14T02:55:14.401Z,9.37
2022-11-14T02:57:41.093Z,9.33
2022-11-14T03:00:13.505Z,9.07
2022-11-14T03:02:41.771Z,8.27
2022-11-14T03:05:08.981Z,8.70
2022-11-14T03:07:35.811Z,9.03
2022-11-14T03:10:03.224Z,8.97
2022-11-14T03:12:30.002Z,9.87
2022-11-14T03:14:56.700Z,8.80
2022-11-14T03:17:24.617Z,9.30
2022-11-14T03:19:51.524Z,9.70
2022-11-14T03:22:18.310Z,9.50
2022-11-14T03:24:45.020Z,9.33
2022-11-14T03:27:11.728Z,9.47
2022-11-14T03:29:38.448Z,9.73
2022-11-14T03:32:05.282Z,9.77
2022-11-14T03:34:32.306Z,9.23
2022-11-14T03:37:00.322Z,8.70
2022-11-14T03:39:27.834Z,8.63
2022-11-14T03:41:54.558Z,9.43
2022-11-14T03:44:21.252Z,9.27
2022-11-14T03:46:48.001Z,8.97
2022-11-14T03:49:14.685Z,9.03
2022-11-14T03:51:41.382Z,8.60
2022-11-14T03:54:08.123Z,8.77
2022-11-14T03:56:34.865Z,9.87
2022-11-14T03:59:01.681Z,9.33
2022-11-14T04:01:29.258Z,8.93
2022-11-14T04:03:56.441Z,8.90
2022-11-14T04:06:23.494Z,9.03
2022-11-14T04:08:51.769Z,8.80
2022-11-14T04:11:19.267Z,9.67
2022-11-14T04:13:46.078Z,9.47
2022-11-14T04:16:12.792Z,8.87
2022-11-14T04:18:39.619Z,8.30
2022-11-14T04:21:06.409Z,8.27
2022-11-14T04:23:33.200Z,8.37
2022-11-14T04:25:59.943Z,8.50
2022-11-14T04:28:26.853Z,9.07
2022-11-14T04:30:53.832Z,8.47
2022-11-14T04:33:20.597Z,9.80
2022-11-14T04:35:48.005Z,9.40
2022-11-14T04:38:14.765Z,9.60
2022-11-14T04:40:47.761Z,8.70
2022-11-14T04:43:14.457Z,9.23
2022-11-14T04:45:41.177Z,8.70
2022-11-14T04:48:07.863Z,9.17
2022-11-14T04:50:34.568Z,8.87
2022-11-14T04:53:01.261Z,8.90
2022-11-14T04:55:27.977Z,8.87
2022-11-14T04:57:56.341Z,8.63
2022-11-14T05:00:24.484Z,8.93
2022-11-14T05:02:51.373Z,8.43
2022-11-14T05:05:18.076Z,9.63
2022-11-14T05:07:44.801Z,9.20
2022-11-14T05:10:11.499Z,9.37
2022-11-14T05:12:38.263Z,8.90
2022-11-14T05:15:05.445Z,10.13
2022-11-14T05:17:32.196Z,13.20
2022-11-14T05:19:58.934Z,12.67
2022-11-14T05:22:25.643Z,14.23
2022-11-14T05:24:52.406Z,15.47
2022-11-14T05:27:19.098Z,14.13
2022-11-14T05:29:45.797Z,14.90
2022-11-14T05:32:16.295Z,15.40
2022-11-14T05:34:43.303Z,14.90
2022-11-14T05:37:10.075Z,13.43
2022-11-14T05:39:36.785Z,13.30
2022-11-14T05:42:03.662Z,13.50
2022-11-14T05:44:30.590Z,13.47
2022-11-14T05:46:57.325Z,13.07
2022-11-14T05:49:24.246Z,13.70
2022-11-14T05:51:51.026Z,11.43
2022-11-14T05:54:17.721Z,12.63
2022-11-14T05:56:44.443Z,12.67
2022-11-14T05:59:11.156Z,13.73
2022-11-14T06:01:37.919Z,13.37
2022-11-14T06:04:06.286Z,13.37
2022-11-14T06:06:33.012Z,13.27
2022-11-14T06:08:59.763Z,12.70
2022-11-14T06:11:26.468Z,13.43
2022-11-14T06:13:53.181Z,10.53
2022-11-14T06:16:20.111Z,10.87
2022-11-14T06:18:47.603Z,11.10
2022-11-14T06:21:21.071Z,11.23
2022-11-14T06:23:48.191Z,10.80
2022-11-14T06:26:25.140Z,10.13
2022-11-14T06:28:53.710Z,11.27
2022-11-14T06:31:21.285Z,10.53
2022-11-14T06:33:48.825Z,11.70
2022-11-14T06:36:16.683Z,10.77
2022-11-14T06:38:44.623Z,12.13
2022-11-14T06:41:17.965Z,11.30
2022-11-14T06:43:49.112Z,11.13
2022-11-14T06:46:19.913Z,10.57
2022-11-14T06:48:48.108Z,10.23
2022-11-14T06:51:16.814Z,10.23
2022-11-14T06:53:44.326Z,10.20
2022-11-14T06:56:15.053Z,9.60
2022-11-14T06:58:48.878Z,9.60
2022-11-14T07:01:22.701Z,9.77
2022-11-14T07:03:50.373Z,9.00
2022-11-14T07:06:24.753Z,8.70
2022-11-14T07:08:56.351Z,8.53
2022-11-14T07:11:35.494Z,8.83
2022-11-14T07:14:04.272Z,8.80
2022-11-14T07:16:36.753Z,8.27
2022-11-14T07:19:09.652Z,9.23
2022-11-14T07:21:37.152Z,10.83
2022-11-14T07:24:04.378Z,9.70
2022-11-14T07:26:31.064Z,9.60
2022-11-14T07:29:02.044Z,10.57
2022-11-14T07:31:29.685Z,10.13
2022-11-14T07:33:56.455Z,9.93
2022-11-14T07:36:23.817Z,8.90
2022-11-14T07:38:50.696Z,8.27
2022-11-14T07:41:18.121Z,9.20
2022-11-14T07:43:45.566Z,10.50
2022-11-14T07:46:17.934Z,10.37
2022-11-14T07:48:45.264Z,9.90
2022-11-14T07:51:30.792Z,9.50
2022-11-14T07:53:57.517Z,9.80
2022-11-14T07:56:25.803Z,9.67
2022-11-14T07:58:52.583Z,9.07
2022-11-14T08:01:19.370Z,8.00
2022-11-14T08:03:46.491Z,8.23
2022-11-14T08:06:16.433Z,6.50
2022-11-14T08:08:43.379Z,6.80
2022-11-14T08:11:10.630Z,6.37
2022-11-14T08:13:37.591Z,6.67
2022-11-14T08:16:12.317Z,6.57
2022-11-14T08:18:40.406Z,6.50
2022-11-14T08:21:07.351Z,6.50
2022-11-14T08:23:34.499Z,6.77
2022-11-14T08:26:01.458Z,6.90
2022-11-14T08:28:29.001Z,6.30
2022-11-14T08:31:04.215Z,6.33
2022-11-14T08:33:31.766Z,7.07
2022-11-14T08:36:05.156Z,6.47
2022-11-14T08:38:34.203Z,6.70
2022-11-14T08:41:02.213Z,6.83
2022-11-14T08:43:31.323Z,7.70
2022-11-14T08:46:02.542Z,7.10
2022-11-14T08:48:32.031Z,6.97
2022-11-14T08:51:04.917Z,7.07
2022-11-14T08:53:32.314Z,7.60
2022-11-14T08:55:59.462Z,7.43
2022-11-14T08:58:33.499Z,6.90
2022-11-14T09:01:07.217Z,6.63
2022-11-14T09:03:34.818Z,6.30
2022-11-14T09:06:02.426Z,6.30
2022-11-14T09:08:30.658Z,6.97
2022-11-14T09:11:05.102Z,6.30
2022-11-14T09:13:34.585Z,6.40
2022-11-14T09:16:01.470Z,6.13
2022-11-14T09:18:29.437Z,6.13
2022-11-14T09:21:05.204Z,6.37
2022-11-14T09:23:33.383Z,6.60
2022-11-14T09:26:09.134Z,6.50
2022-11-14T09:28:36.900Z,6.23
2022-11-14T09:31:12.856Z,5.87
2022-11-14T09:33:40.136Z,5.73
2022-11-14T09:36:15.615Z,5.80
2022-11-14T09:38:44.263Z,6.23
2022-11-14T09:41:36.442Z,5.13
2022-11-14T09:44:39.573Z,5.87
2022-11-14T09:47:19.361Z,5.20
2022-11-14T09:49:52.106Z,6.03
2022-11-14T09:52:35.226Z,4.90
2022-11-14T09:55:36.474Z,6.07
2022-11-14T09:58:05.019Z,5.10
2022-11-14T10:01:11.553Z,5.17
2022-11-14T10:04:09.189Z,4.90
2022-11-14T10:06:54.812Z,5.10
2022-11-14T10:09:39.355Z,5.10
2022-11-14T10:12:22.131Z,5.30
2022-11-14T10:15:16.308Z,4.70
2022-11-14T10:18:15.421Z,5.03
2022-11-14T10:20:50.323Z,4.83
2022-11-14T10:23:38.240Z,4.50
2022-11-14T10:26:16.419Z,4.33
2022-11-14T10:29:17.086Z,4.73
2022-11-14T10:32:23.419Z,3.80
2022-11-14T10:35:04.362Z,5.27
2022-11-14T10:38:00.904Z,4.53
2022-11-14T10:40:44.663Z,4.60
2022-11-14T10:43:32.285Z,4.80
2022-11-14T10:46:18.757Z,4.70
2022-11-14T10:48:49.866Z,4.40
2022-11-14T10:51:28.224Z,5.00
2022-11-14T10:54:17.873Z,4.50
2022-11-14T10:56:50.781Z,4.90
2022-11-14T10:59:18.776Z,4.27
2022-11-14T11:01:58.062Z,4.33
2022-11-14T11:04:31.813Z,4.53
2022-11-14T11:07:07.020Z,4.07
2022-11-14T11:09:55.780Z,3.60
2022-11-14T11:12:46.171Z,4.40
2022-11-14T11:15:20.238Z,4.60
2022-11-14T11:18:02.943Z,4.30
2022-11-14T11:20:31.920Z,4.07
2022-11-14T11:23:11.698Z,3.67
2022-11-14T11:25:40.070Z,3.73
2022-11-14T11:28:18.500Z,4.03
2022-11-14T11:30:56.941Z,3.77
2022-11-14T11:33:36.624Z,3.63
2022-11-14T11:36:18.785Z,3.90
2022-11-14T11:38:47.253Z,3.73
2022-11-14T11:42:07.221Z,3.80
2022-11-14T11:44:19.778Z,3.63
2022-11-14T11:46:59.046Z,3.50
2022-11-14T11:49:53.925Z,3.30
2022-11-14T11:52:34.679Z,3.67
2022-11-14T11:55:28.526Z,3.40
2022-11-14T11:58:22.489Z,3.30
2022-11-14T12:00:55.397Z,3.67
2022-11-14T12:03:25.353Z,3.37
2022-11-14T12:06:25.175Z,3.63
2022-11-14T12:09:22.460Z,3.10
2022-11-14T12:12:10.108Z,3.00
2022-11-14T12:14:51.806Z,3.20
2022-11-14T12:17:30.176Z,3.60
2022-11-14T12:20:14.701Z,3.27
2022-11-14T12:22:59.856Z,3.53
2022-11-14T12:25:47.406Z,3.33
2022-11-14T12:28:46.378Z,3.47
2022-11-14T12:31:16.934Z,3.90
2022-11-14T12:33:56.045Z,4.23
2022-11-14T12:36:31.497Z,3.70
2022-11-14T12:39:01.560Z,4.10
2022-11-14T12:41:36.090Z,3.73
2022-11-14T12:44:36.899Z,3.20
2022-11-14T12:47:06.647Z,3.40
2022-11-14T12:49:48.850Z,4.00
2022-11-14T12:52:40.383Z,3.17
2022-11-14T12:55:25.318Z,3.20
2022-11-14T12:58:09.681Z,3.07
2022-11-14T13:00:46.257Z,3.23
2022-11-14T13:03:49.165Z,2.87
2022-11-14T13:07:07.652Z,2.80
2022-11-14T13:09:58.386Z,2.70
2022-11-14T13:12:53.306Z,2.53
2022-11-14T13:15:54.726Z,2.50
2022-11-14T13:18:45.669Z,2.10
2022-11-14T13:21:39.747Z,2.50
2022-11-14T13:24:19.137Z,2.10
2022-11-14T13:26:49.981Z,2.43
2022-11-14T13:29:41.367Z,2.20
2022-11-14T13:32:12.069Z,1.93
2022-11-14T13:35:04.349Z,2.10
2022-11-14T13:37:58.762Z,1.70
2022-11-14T13:40:59.132Z,1.70
2022-11-14T13:43:46.978Z,1.37
2022-11-14T13:46:46.986Z,1.63
2022-11-14T13:49:40.182Z,1.40
2022-11-14T13:52:06.875Z,1.30
2022-11-14T13:54:34.369Z,1.50
2022-11-14T13:57:28.104Z,1.20
2022-11-14T14:00:18.388Z,1.37
2022-11-14T14:03:07.232Z,1.20
2022-11-14T14:06:01.142Z,1.20
2022-11-14T14:09:09.512Z,1.23
2022-11-14T14:12:07.882Z,1.37
2022-11-14T14:14:59.752Z,1.30
2022-11-14T14:17:57.358Z,1.30
2022-11-14T14:20:37.602Z,1.40
2022-11-14T14:23:16.543Z,0.97
2022-11-14T14:25:55.245Z,1.30
2022-11-14T14:29:03.675Z,1.40
2022-11-14T14:31:41.763Z,1.77
2022-11-14T14:34:31.273Z,2.00
2022-11-14T14:36:58.686Z,2.23
2022-11-14T14:39:28.561Z,2.70
2022-11-14T14:41:58.533Z,2.70
2022-11-14T14:44:39.817Z,2.50
2022-11-14T14:47:41.383Z,2.70
2022-11-14T14:50:26.411Z,3.13
2022-11-14T14:53:04.022Z,2.87
2022-11-14T14:55:34.329Z,2.77
2022-11-14T14:58:22.873Z,2.60
2022-11-14T15:01:00.053Z,2.83
2022-11-14T15:03:40.819Z,3.20
2022-11-14T15:06:38.149Z,3.73
2022-11-14T15:09:07.609Z,6.50
2022-11-14T15:11:39.316Z,7.13
2022-11-14T15:14:07.108Z,5.97
2022-11-14T15:16:34.127Z,5.63
2022-11-14T15:19:01.662Z,5.67
2022-11-14T15:21:30.610Z,5.60
2022-11-14T15:24:18.373Z,5.87
2022-11-14T15:26:50.802Z,4.40
2022-11-14T15:29:24.779Z,4.27
2022-11-14T15:31:58.683Z,4.20
2022-11-14T15:34:26.870Z,3.40
2022-11-14T15:37:16.060Z,3.13
2022-11-14T15:39:43.783Z,2.90
2022-11-14T15:42:26.353Z,3.20
2022-11-14T15:44:53.949Z,3.57
2022-11-14T15:47:29.364Z,3.00
2022-11-14T15:50:13.585Z,2.97
2022-11-14T15:52:56.678Z,3.10
2022-11-14T15:55:24.597Z,3.00
2022-11-14T15:58:00.989Z,2.77
2022-11-14T16:00:53.244Z,2.67
2022-11-14T16:03:22.892Z,2.70
2022-11-14T16:05:49.611Z,2.60
2022-11-14T16:08:16.355Z,2.73
2022-11-14T16:10:43.069Z,2.40
2022-11-14T16:13:13.280Z,2.73
2022-11-14T16:15:40.042Z,3.00
2022-11-14T16:18:06.831Z,3.27
2022-11-14T16:20:37.808Z,2.30
2022-11-14T16:23:05.829Z,2.70
2022-11-14T16:25:33.233Z,3.20
2022-11-14T16:27:59.960Z,2.93
2022-11-14T16:30:26.734Z,3.37
2022-11-14T16:32:53.481Z,2.90
2022-11-14T16:35:26.737Z,3.13
2022-11-14T16:37:55.688Z,3.37
2022-11-14T16:40:27.401Z,3.50
2022-11-14T16:42:56.369Z,3.30
2022-11-14T16:45:24.392Z,2.87
2022-11-14T16:47:51.195Z,3.10
2022-11-14T16:50:19.417Z,3.10
2022-11-14T16:52:46.143Z,3.17
2022-11-14T16:55:13.537Z,3.50
2022-11-14T16:57:40.728Z,3.50
2022-11-14T17:00:12.724Z,3.70
2022-11-14T17:02:43.286Z,3.87
2022-11-14T17:05:10.182Z,4.03
2022-11-14T17:07:37.013Z,3.97
2022-11-14T17:10:05.497Z,3.80
2022-11-14T17:12:50.999Z,3.70
2022-11-14T17:15:36.825Z,4.07
2022-11-14T17:18:03.798Z,3.53
2022-11-14T17:20:31.108Z,3.87
2022-11-14T17:22:57.941Z,3.60
2022-11-14T17:25:24.858Z,3.43
2022-11-14T17:27:51.788Z,3.53
2022-11-14T17:30:18.708Z,3.43
2022-11-14T17:32:45.484Z,3.50
2022-11-14T17:35:12.221Z,4.43
2022-11-14T17:37:38.958Z,4.00
2022-11-14T17:40:10.120Z,3.97
2022-11-14T17:42:38.232Z,3.83
2022-11-14T17:45:05.392Z,4.00
2022-11-14T17:47:32.214Z,4.53
2022-11-14T17:49:58.971Z,4.30
2022-11-14T17:52:28.243Z,4.43
2022-11-14T17:54:54.951Z,4.33
2022-11-14T17:57:21.666Z,4.70
2022-11-14T17:59:48.427Z,4.30
2022-11-14T18:02:17.442Z,4.37
2022-11-14T18:04:44.270Z,4.47
2022-11-14T18:07:11.785Z,4.47
2022-11-14T18:09:39.110Z,4.40
2022-11-14T18:12:06.136Z,5.10
2022-11-14T18:14:32.842Z,4.73
2022-11-14T18:17:12.486Z,4.90
2022-11-14T18:19:40.223Z,5.30
2022-11-14T18:22:06.981Z,4.83
2022-11-14T18:24:33.679Z,5.70
2022-11-14T18:27:00.408Z,5.43
2022-11-14T18:29:28.300Z,5.27
2022-11-14T18:31:55.206Z,5.30
2022-11-14T18:34:21.941Z,5.47
2022-11-14T18:36:48.707Z,5.20
2022-11-14T18:39:15.422Z,5.67
2022-11-14T18:41:42.122Z,5.33
2022-11-14T18:44:08.858Z,6.27
2022-11-14T18:46:37.630Z,5.50
2022-11-14T18:49:04.479Z,5.63
2022-11-14T18:51:31.787Z,6.40
2022-11-14T18:54:01.650Z,7.07
2022-11-14T18:56:28.363Z,6.90
2022-11-14T18:58:57.060Z,5.93
2022-11-14T19:01:29.088Z,5.90
2022-11-14T19:04:06.513Z,6.13
2022-11-14T19:06:36.457Z,6.57
2022-11-14T19:09:18.063Z,6.70
2022-11-14T19:12:03.749Z,6.70
2022-11-14T19:14:30.499Z,5.70
2022-11-14T19:16:57.256Z,6.30
2022-11-14T19:19:23.984Z,6.17
2022-11-14T19:21:51.266Z,6.00
2022-11-14T19:24:18.678Z,6.03
2022-11-14T19:26:45.460Z,5.70
2022-11-14T19:29:15.054Z,5.67
2022-11-14T19:31:43.137Z,5.77
2022-11-14T19:34:10.198Z,5.53
2022-11-14T19:39:24.105Z,6.13
2022-11-14T19:41:50.892Z,5.23
2022-11-14T19:44:17.614Z,6.30
2022-11-14T19:46:47.487Z,6.30
2022-11-14T19:49:15.256Z,5.97
2022-11-14T19:51:42.254Z,5.63
2022-11-14T19:54:11.102Z,5.20
2022-11-14T19:56:37.894Z,5.57
2022-11-14T19:59:09.690Z,5.07
2022-11-14T20:01:42.022Z,5.67
2022-11-14T20:04:13.029Z,5.60
2022-11-14T20:06:41.445Z,5.23
2022-11-14T20:09:10.784Z,4.87
2022-11-14T20:11:38.020Z,5.33
2022-11-14T20:14:05.745Z,5.03
2022-11-14T20:16:37.307Z,5.20
2022-11-14T20:19:04.533Z,5.40
2022-11-14T20:21:33.988Z,4.80
2022-11-14T20:24:01.216Z,4.90
2022-11-14T20:26:28.072Z,6.63
2022-11-14T20:28:55.381Z,5.07
2022-11-14T20:31:28.366Z,5.33
2022-11-14T20:33:58.566Z,5.43
2022-11-14T20:36:31.903Z,4.70
2022-11-14T20:39:06.053Z,5.20
2022-11-14T20:41:33.480Z,4.80
2022-11-14T20:44:02.126Z,4.73
2022-11-14T20:46:29.025Z,4.73
2022-11-14T20:48:56.881Z,5.30
2022-11-14T20:51:25.802Z,4.27
2022-11-14T20:53:55.459Z,4.70
2022-11-14T20:56:23.114Z,4.73
2022-11-14T20:58:53.865Z,5.07
2022-11-14T21:01:21.460Z,5.03
2022-11-14T21:03:48.887Z,5.60
2022-11-14T21:06:16.858Z,6.07
2022-11-14T21:08:44.316Z,6.20
2022-11-14T21:11:18.080Z,6.00
2022-11-14T21:13:57.636Z,5.80
2022-11-14T21:16:32.250Z,6.17
2022-11-14T21:19:00.635Z,6.23
2022-11-14T21:21:30.300Z,6.33
2022-11-14T21:23:57.436Z,5.80
2022-11-14T21:26:27.984Z,5.57
2022-11-14T21:29:03.496Z,5.97
2022-11-14T21:31:39.709Z,5.70
2022-11-14T21:34:16.604Z,5.63
2022-11-14T21:36:45.539Z,5.83
2022-11-14T21:39:14.688Z,5.00
2022-11-14T21:41:42.785Z,5.77
2022-11-14T21:44:13.632Z,5.37
2022-11-14T21:46:40.804Z,5.50
2022-11-14T21:49:08.030Z,4.90
2022-11-14T21:51:35.068Z,5.03
2022-11-14T21:54:06.220Z,5.13
2022-11-14T21:56:35.299Z,5.30
2022-11-14T21:59:13.891Z,5.17
2022-11-14T22:02:03.249Z,5.20
2022-11-14T22:04:31.245Z,4.60
2022-11-14T22:06:59.253Z,5.17
2022-11-14T22:09:30.044Z,4.97
2022-11-14T22:11:57.039Z,4.70
2022-11-14T22:14:24.419Z,4.97
2022-11-14T22:16:51.364Z,5.43
2022-11-14T22:19:18.784Z,5.07
2022-11-14T22:21:45.679Z,5.40
2022-11-14T22:24:12.399Z,4.57
2022-11-14T22:26:40.294Z,4.73
2022-11-14T22:29:08.000Z,4.73
2022-11-14T22:31:35.478Z,4.40
2022-11-14T22:34:02.209Z,4.70
2022-11-14T22:36:29.164Z,4.63
2022-11-14T22:38:57.281Z,4.20
2022-11-14T22:41:32.807Z,4.10
2022-11-14T22:44:01.437Z,4.00
2022-11-14T22:46:28.784Z,4.20
2022-11-14T22:48:56.097Z,3.73
2022-11-14T22:51:26.166Z,4.23
2022-11-14T22:53:57.951Z,4.03
2022-11-14T22:56:29.538Z,3.87
2022-11-14T22:58:58.985Z,4.13
2022-11-14T23:01:32.075Z,4.07
2022-11-14T23:04:04.962Z,4.27
2022-11-14T23:06:34.304Z,3.87
2022-11-14T23:09:02.182Z,4.37
2022-11-14T23:11:32.895Z,4.30
2022-11-14T23:14:01.258Z,4.23
2022-11-14T23:16:33.252Z,4.40
2022-11-14T23:19:03.818Z,4.00
2022-11-14T23:21:35.485Z,3.90
2022-11-14T23:24:06.171Z,4.33
2022-11-14T23:26:33.500Z,3.93
2022-11-14T23:29:01.017Z,3.80
2022-11-14T23:31:27.938Z,3.90
2022-11-14T23:33:57.656Z,4.37
2022-11-14T23:36:25.051Z,3.83
2022-11-14T23:38:53.346Z,4.00
2022-11-14T23:41:27.715Z,4.30
2022-11-14T23:43:54.546Z,4.10
2022-11-14T23:46:21.374Z,4.00
2022-11-14T23:48:48.669Z,4.03
2022-11-14T23:51:15.462Z,4.27
2022-11-14T23:53:46.739Z,4.33
2022-11-14T23:56:14.725Z,4.37
2022-11-14T23:58:42.039Z,4.03
